Time;durP1;ratioP1;P1;durP2;ratioP2;P2;SDS_P1;SDS_P2;PMS_P1;PMS_P2;Temp;Humidity;BMP_temperature;BMP_pressure;BME280_temperature;BME280_humidity;BME280_pressure;Samples;Min_cycle;Max_cycle;Signal;HPM_P1;HPM_P2
2021/12/29 00:02:02;;;;;;;12.80;3.30;;;9.20;99.90;;;;;;4996673;28;20213;-69
2021/12/29 00:04:29;;;;;;;23.65;11.60;;;9.20;99.90;;;;;;4996098;28;20210;-69
2021/12/29 00:06:56;;;;;;;18.67;8.20;;;9.20;99.90;;;;;;4995919;28;20281;-70
2021/12/29 00:09:23;;;;;;;24.88;13.48;;;9.20;99.90;;;;;;4996313;28;20720;-69
2021/12/29 00:11:50;;;;;;;18.92;3.58;;;9.20;99.90;;;;;;4995722;28;20227;-69
2021/12/29 00:14:17;;;;;;;26.60;10.93;;;9.20;99.90;;;;;;4996070;28;20206;-69
2021/12/29 00:16:43;;;;;;;16.88;4.60;;;9.20;99.90;;;;;;4996149;28;20209;-69
2021/12/29 00:19:10;;;;;;;13.40;6.72;;;9.20;99.90;;;;;;4996058;28;20205;-69
2021/12/29 00:21:37;;;;;;;12.68;3.90;;;9.20;99.90;;;;;;4995994;28;20653;-69
2021/12/29 00:24:05;;;;;;;17.77;6.40;;;9.10;99.90;;;;;;4995653;28;20222;-70
2021/12/29 00:26:32;;;;;;;16.75;5.80;;;9.10;99.90;;;;;;4996261;28;20618;-70
2021/12/29 00:29:00;;;;;;;17.15;6.25;;;9.10;99.90;;;;;;4996016;28;20277;-70
2021/12/29 00:31:31;;;;;;;10.48;2.80;;;9.10;99.90;;;;;;4996434;28;20230;-69
2021/12/29 00:33:58;;;;;;;10.60;2.95;;;9.10;99.90;;;;;;4995967;28;20249;-69
2021/12/29 00:36:26;;;;;;;13.63;4.40;;;9.10;99.90;;;;;;4996165;28;20203;-71
2021/12/29 00:38:53;;;;;;;8.00;3.45;;;9.10;99.90;;;;;;4996344;28;20210;-69
2021/12/29 00:41:20;;;;;;;10.13;3.00;;;9.10;99.90;;;;;;4996072;28;20257;-69
2021/12/29 00:43:47;;;;;;;17.63;2.75;;;9.20;99.90;;;;;;4995698;28;20210;-70
2021/12/29 00:46:17;;;;;;;8.38;2.92;;;9.20;99.90;;;;;;4995546;28;20620;-69
2021/12/29 00:48:46;;;;;;;11.48;3.38;;;9.20;99.90;;;;;;4996067;28;20210;-69
2021/12/29 00:51:12;;;;;;;12.05;2.83;;;9.20;99.90;;;;;;4995724;28;20563;-69
2021/12/29 00:53:39;;;;;;;11.75;3.88;;;9.20;99.90;;;;;;4995708;28;20253;-70
2021/12/29 00:56:06;;;;;;;12.68;3.20;;;9.20;99.90;;;;;;4995648;28;20206;-69
2021/12/29 00:58:33;;;;;;;6.55;1.75;;;9.20;99.90;;;;;;5000806;28;20710;-69
2021/12/29 01:01:00;;;;;;;6.28;2.20;;;9.20;99.90;;;;;;5005363;28;20266;-70
2021/12/29 01:03:27;;;;;;;9.00;2.10;;;9.20;99.90;;;;;;5002735;28;20265;-70
2021/12/29 01:05:53;;;;;;;6.55;2.22;;;9.30;99.90;;;;;;5004282;28;20231;-70
2021/12/29 01:08:20;;;;;;;8.10;2.30;;;9.30;99.90;;;;;;4985871;28;20202;-69
2021/12/29 01:10:47;;;;;;;7.53;2.53;;;9.30;99.90;;;;;;5005015;28;20309;-69
2021/12/29 01:13:19;;;;;;;4.93;2.17;;;9.30;99.90;;;;;;5001120;28;20203;-70
2021/12/29 01:15:57;;;;;;;7.55;2.03;;;9.30;99.90;;;;;;4995917;28;20244;-70
2021/12/29 01:18:26;;;;;;;9.63;2.60;;;9.40;99.90;;;;;;4997112;28;20284;-69
2021/12/29 01:20:54;;;;;;;7.57;2.30;;;9.40;99.90;;;;;;4996131;28;20239;-69
2021/12/29 01:23:21;;;;;;;4.82;1.63;;;9.40;99.90;;;;;;4997155;28;20270;-69
2021/12/29 01:25:48;;;;;;;9.18;2.00;;;9.40;99.90;;;;;;4996391;28;20268;-70
2021/12/29 01:28:14;;;;;;;3.65;1.95;;;9.50;99.90;;;;;;4994976;28;20207;-70
2021/12/29 01:30:42;;;;;;;5.72;2.10;;;9.50;99.90;;;;;;4994737;28;20219;-71
2021/12/29 01:33:09;;;;;;;2.95;1.40;;;9.60;99.90;;;;;;4995131;28;20210;-69
2021/12/29 01:35:37;;;;;;;7.20;1.83;;;9.60;99.90;;;;;;4994815;28;20625;-69
2021/12/29 01:38:05;;;;;;;5.53;1.98;;;9.60;99.90;;;;;;4994370;28;20659;-70
2021/12/29 01:40:33;;;;;;;14.15;2.45;;;9.60;99.90;;;;;;4995145;28;20198;-70
2021/12/29 01:43:00;;;;;;;7.45;1.88;;;9.60;99.90;;;;;;4994390;28;20211;-69
2021/12/29 01:45:26;;;;;;;5.57;1.63;;;9.60;99.90;;;;;;4977670;28;20206;-69
2021/12/29 01:47:53;;;;;;;10.27;2.58;;;9.70;99.90;;;;;;4994771;28;20397;-69
2021/12/29 01:50:19;;;;;;;8.55;2.33;;;9.60;99.90;;;;;;4976784;28;20210;-69
2021/12/29 01:52:54;;;;;;;4.20;2.22;;;9.70;99.90;;;;;;4994609;28;20207;-69
2021/12/29 01:55:25;;;;;;;4.25;1.58;;;9.70;99.90;;;;;;4994076;28;20198;-69
2021/12/29 01:57:52;;;;;;;4.72;1.25;;;9.70;99.90;;;;;;4994580;28;20257;-69
2021/12/29 02:00:22;;;;;;;3.45;1.45;;;9.60;99.90;;;;;;4994236;28;20574;-70
2021/12/29 02:02:49;;;;;;;4.72;1.50;;;9.70;99.90;;;;;;4995780;28;20202;-69
2021/12/29 02:05:16;;;;;;;4.78;2.10;;;9.70;99.90;;;;;;4995554;28;20206;-69
2021/12/29 02:07:43;;;;;;;5.55;1.60;;;9.70;99.90;;;;;;4995961;28;20225;-70
2021/12/29 02:10:13;;;;;;;10.40;2.08;;;9.70;99.90;;;;;;4995318;28;20198;-71
2021/12/29 02:12:41;;;;;;;6.13;2.58;;;9.80;99.90;;;;;;4996432;28;20276;-70
2021/12/29 02:15:09;;;;;;;4.78;1.42;;;9.70;99.90;;;;;;4997123;28;20674;-70
2021/12/29 02:17:36;;;;;;;76.50;48.00;;;9.70;99.90;;;;;;4995695;28;20210;-69
2021/12/29 02:20:07;;;;;;;118.90;73.30;;;9.70;99.90;;;;;;4995996;28;20272;-69
2021/12/29 02:25:32;;;;;;;8.93;6.10;;;9.80;99.90;;;;;;4995676;28;20210;-69
2021/12/29 02:27:55;;;;;;;4.35;2.20;;;9.80;99.90;;;;;;4995159;28;20203;-69
2021/12/29 02:30:25;;;;;;;7.47;6.65;;;9.80;99.90;;;;;;4995949;28;20233;-69
2021/12/29 02:32:59;;;;;;;5.05;1.40;;;9.80;99.90;;;;;;4997759;28;20213;-69
2021/12/29 02:35:26;;;;;;;3.65;1.35;;;9.70;99.90;;;;;;4995977;28;20210;-69
2021/12/29 02:37:53;;;;;;;4.05;1.73;;;9.70;99.90;;;;;;4995793;28;20439;-69
2021/12/29 02:40:19;;;;;;;3.60;1.45;;;9.70;99.90;;;;;;4995971;28;20198;-69
2021/12/29 02:42:46;;;;;;;3.58;1.70;;;9.70;99.90;;;;;;4996134;28;20203;-69
2021/12/29 02:45:18;;;;;;;2.78;1.10;;;9.80;99.90;;;;;;4995123;28;20206;-70
2021/12/29 02:47:45;;;;;;;1.80;1.30;;;9.80;99.90;;;;;;4994655;28;20202;-70
2021/12/29 02:50:15;;;;;;;4.65;1.63;;;9.80;99.90;;;;;;4998792;28;20793;-69
2021/12/29 02:52:43;;;;;;;4.78;1.55;;;9.80;99.90;;;;;;4998635;28;20284;-69
2021/12/29 02:55:10;;;;;;;2.50;1.30;;;9.80;99.90;;;;;;4998408;28;20206;-69
2021/12/29 02:57:36;;;;;;;1.90;1.00;;;9.80;99.90;;;;;;4998421;28;20206;-69
2021/12/29 03:00:04;;;;;;;4.88;1.25;;;9.80;99.90;;;;;;4998989;28;20622;-69
2021/12/29 03:02:31;;;;;;;3.88;1.38;;;9.70;99.90;;;;;;4999076;28;20206;-69
2021/12/29 03:04:58;;;;;;;3.53;1.25;;;9.70;99.90;;;;;;4998284;28;20675;-69
2021/12/29 03:07:25;;;;;;;5.78;1.00;;;9.80;99.90;;;;;;4998133;28;20589;-69
2021/12/29 03:09:51;;;;;;;1.52;1.00;;;9.70;99.90;;;;;;4998819;28;20206;-69
2021/12/29 03:12:18;;;;;;;4.55;1.80;;;9.70;99.90;;;;;;4998753;28;20214;-69
2021/12/29 03:14:52;;;;;;;1.50;1.15;;;9.80;99.90;;;;;;4998421;28;20662;-69
2021/12/29 03:17:19;;;;;;;3.13;1.30;;;9.80;99.90;;;;;;4997997;28;20222;-69
2021/12/29 03:19:47;;;;;;;2.47;1.30;;;9.80;99.90;;;;;;4980058;28;20207;-69
2021/12/29 03:22:14;;;;;;;1.80;0.70;;;9.70;99.90;;;;;;4996992;28;20234;-69
2021/12/29 03:24:41;;;;;;;2.38;1.20;;;9.70;99.90;;;;;;4998064;28;20229;-69
2021/12/29 03:27:07;;;;;;;2.10;1.42;;;9.70;99.90;;;;;;4997733;28;20582;-69
2021/12/29 03:29:34;;;;;;;2.70;1.38;;;9.70;99.90;;;;;;4997646;28;20628;-70
2021/12/29 03:32:06;;;;;;;4.97;1.10;;;9.70;99.90;;;;;;4997393;28;20292;-69
2021/12/29 03:34:33;;;;;;;1.35;0.90;;;9.70;99.90;;;;;;4979599;28;20613;-70
2021/12/29 03:36:59;;;;;;;4.72;1.00;;;9.70;99.90;;;;;;4997923;28;20195;-71
2021/12/29 03:39:27;;;;;;;6.22;1.23;;;9.60;99.90;;;;;;4998296;28;20629;-70
2021/12/29 03:41:54;;;;;;;2.45;1.10;;;9.70;99.90;;;;;;4997689;28;20210;-69
2021/12/29 03:44:20;;;;;;;1.20;0.90;;;9.70;99.90;;;;;;4997622;28;20210;-69
2021/12/29 03:46:47;;;;;;;1.45;1.10;;;9.80;99.90;;;;;;4979615;28;20206;-70
2021/12/29 03:49:13;;;;;;;2.15;1.00;;;9.70;99.90;;;;;;4997282;28;20225;-70
2021/12/29 03:51:39;;;;;;;1.42;1.20;;;9.70;99.90;;;;;;4996735;28;20268;-69
2021/12/29 03:54:06;;;;;;;2.50;1.13;;;9.70;99.90;;;;;;4979716;28;20229;-69
2021/12/29 03:56:33;;;;;;;2.42;1.00;;;9.80;99.90;;;;;;4997015;28;20643;-69
2021/12/29 03:58:59;;;;;;;3.65;1.23;;;9.70;99.90;;;;;;4979669;28;20252;-70
2021/12/29 04:01:26;;;;;;;1.40;0.93;;;9.70;99.90;;;;;;4997477;28;20206;-70
2021/12/29 04:03:52;;;;;;;1.42;1.08;;;9.70;99.90;;;;;;4996915;28;20555;-69
2021/12/29 04:06:21;;;;;;;1.13;1.02;;;9.70;99.90;;;;;;4997357;28;20222;-69
2021/12/29 04:08:48;;;;;;;2.50;1.10;;;9.60;99.90;;;;;;4997429;28;20202;-69
2021/12/29 04:11:15;;;;;;;1.30;1.00;;;9.60;99.90;;;;;;4997167;28;20272;-69
2021/12/29 04:13:43;;;;;;;3.72;0.95;;;9.60;99.90;;;;;;4997445;28;20217;-70
2021/12/29 04:16:16;;;;;;;1.25;0.82;;;9.50;99.90;;;;;;4997775;28;20248;-69
2021/12/29 04:19:06;;;;;;;3.47;0.85;;;9.50;99.90;;;;;;4996412;28;20210;-69
2021/12/29 04:21:37;;;;;;;1.27;0.93;;;9.50;99.90;;;;;;4996572;28;20242;-70
2021/12/29 04:24:05;;;;;;;1.65;1.05;;;9.50;99.90;;;;;;4997174;28;20194;-70
2021/12/29 04:26:35;;;;;;;3.67;1.00;;;9.50;99.90;;;;;;4997227;28;20261;-70
2021/12/29 04:29:03;;;;;;;1.52;0.85;;;9.50;99.90;;;;;;4997222;28;20268;-69
2021/12/29 04:31:29;;;;;;;2.20;0.90;;;9.40;99.90;;;;;;4997389;28;20222;-69
2021/12/29 04:33:56;;;;;;;1.70;1.00;;;9.40;99.90;;;;;;4997529;28;20685;-69
2021/12/29 04:36:25;;;;;;;2.03;1.10;;;9.40;99.90;;;;;;4997452;28;20203;-69
2021/12/29 04:38:53;;;;;;;2.05;1.13;;;9.40;99.90;;;;;;4997336;28;20276;-70
2021/12/29 04:41:21;;;;;;;1.92;1.40;;;9.40;99.90;;;;;;4997541;28;20203;-70
2021/12/29 04:43:48;;;;;;;1.98;0.95;;;9.40;99.90;;;;;;4997443;28;20658;-69
2021/12/29 04:46:16;;;;;;;2.10;1.10;;;9.40;99.90;;;;;;4997060;28;20252;-70
2021/12/29 04:48:50;;;;;;;3.38;1.80;;;9.40;99.90;;;;;;4997930;28;20666;-70
2021/12/29 04:51:24;;;;;;;1.58;1.30;;;9.40;99.90;;;;;;4998057;28;20211;-68
2021/12/29 04:53:51;;;;;;;1.10;1.00;;;9.30;99.90;;;;;;4997001;28;20261;-68
2021/12/29 04:56:17;;;;;;;1.25;1.17;;;9.30;99.90;;;;;;4980285;28;20244;-69
2021/12/29 04:58:44;;;;;;;1.40;1.00;;;9.20;99.90;;;;;;4997369;28;20208;-69
2021/12/29 05:01:10;;;;;;;1.10;1.00;;;9.20;99.90;;;;;;4996651;28;20635;-69
2021/12/29 05:03:38;;;;;;;2.35;0.70;;;9.20;99.90;;;;;;4996560;28;20272;-69
2021/12/29 05:08:30;;;;;;;1.80;1.02;;;9.10;99.90;;;;;;4996991;28;20781;-69
2021/12/29 05:11:03;;;;;;;1.58;0.90;;;9.10;99.90;;;;;;4996344;28;20199;-69
2021/12/29 05:13:31;;;;;;;1.17;0.80;;;9.00;99.90;;;;;;4998496;28;20183;-69
2021/12/29 05:15:58;;;;;;;2.65;0.75;;;9.00;99.90;;;;;;4997895;28;20741;-70
2021/12/29 05:18:27;;;;;;;1.38;0.77;;;8.90;99.90;;;;;;4997035;28;20209;-70
2021/12/29 05:20:54;;;;;;;1.98;0.70;;;8.90;99.90;;;;;;4997469;28;20321;-70
2021/12/29 05:23:21;;;;;;;1.50;0.70;;;8.90;99.90;;;;;;4997478;28;20666;-70
2021/12/29 05:25:49;;;;;;;2.33;0.90;;;8.90;99.90;;;;;;4997924;28;20210;-70
2021/12/29 05:28:20;;;;;;;1.73;1.10;;;8.80;99.90;;;;;;4997510;28;20225;-70
2021/12/29 05:30:47;;;;;;;2.38;0.88;;;8.80;99.90;;;;;;4997551;28;20588;-70
2021/12/29 05:33:15;;;;;;;1.73;1.00;;;8.70;99.90;;;;;;4997229;28;20218;-70
2021/12/29 05:35:42;;;;;;;1.25;0.88;;;8.70;99.90;;;;;;4998530;28;20280;-70
2021/12/29 05:38:09;;;;;;;6.05;0.90;;;8.60;99.90;;;;;;4998645;28;20202;-70
2021/12/29 05:40:35;;;;;;;1.00;0.88;;;8.60;99.90;;;;;;4998026;28;20275;-70
2021/12/29 05:43:04;;;;;;;1.75;1.05;;;8.70;99.90;;;;;;4997372;28;20207;-69
2021/12/29 05:45:32;;;;;;;1.45;1.35;;;8.70;99.90;;;;;;4996851;28;20260;-70
2021/12/29 05:47:58;;;;;;;1.05;0.80;;;8.70;99.90;;;;;;4996038;28;20207;-70
2021/12/29 05:50:27;;;;;;;0.80;0.80;;;8.80;99.90;;;;;;4997648;28;20245;-69
2021/12/29 05:52:55;;;;;;;5.25;1.27;;;8.70;99.90;;;;;;4998214;28;20226;-69
2021/12/29 05:55:22;;;;;;;1.25;1.15;;;8.80;99.90;;;;;;4997961;28;20195;-69
2021/12/29 05:57:48;;;;;;;1.77;0.95;;;8.80;99.90;;;;;;4996383;28;20206;-69
2021/12/29 06:00:18;;;;;;;1.00;0.80;;;8.80;99.90;;;;;;4998039;28;20289;-69
2021/12/29 06:02:45;;;;;;;1.17;1.00;;;8.70;99.90;;;;;;4997532;28;20203;-70
2021/12/29 06:05:12;;;;;;;1.55;0.90;;;8.70;99.90;;;;;;4998295;28;20356;-69
2021/12/29 06:07:39;;;;;;;1.35;0.85;;;8.70;99.90;;;;;;4998967;28;20230;-69
2021/12/29 06:10:07;;;;;;;2.10;1.02;;;8.70;99.90;;;;;;4999707;28;20202;-69
2021/12/29 06:12:34;;;;;;;2.50;1.00;;;8.70;99.90;;;;;;5001516;28;20678;-69
2021/12/29 06:15:00;;;;;;;2.88;1.38;;;8.70;99.90;;;;;;5001053;28;20205;-69
2021/12/29 06:17:27;;;;;;;2.45;1.55;;;8.70;99.90;;;;;;4983035;28;20206;-70
2021/12/29 06:19:53;;;;;;;3.10;1.48;;;8.70;99.90;;;;;;5000576;28;20207;-70
2021/12/29 06:22:20;;;;;;;3.65;1.48;;;8.70;99.90;;;;;;4980139;28;20213;-69
2021/12/29 06:24:51;;;;;;;6.55;1.80;;;8.60;99.90;;;;;;4998926;28;20205;-69
2021/12/29 06:27:20;;;;;;;4.07;1.65;;;8.60;99.90;;;;;;4998785;28;20293;-69
2021/12/29 06:29:46;;;;;;;6.03;1.90;;;8.60;99.90;;;;;;5000776;28;20238;-69
2021/12/29 06:32:13;;;;;;;6.53;1.75;;;8.60;99.90;;;;;;5001246;28;20357;-69
2021/12/29 06:34:39;;;;;;;7.72;1.83;;;8.60;99.90;;;;;;4982272;28;20211;-68
2021/12/29 06:37:08;;;;;;;3.35;1.77;;;8.60;99.90;;;;;;4998360;28;20340;-69
2021/12/29 06:39:36;;;;;;;5.85;1.85;;;8.60;99.90;;;;;;4997454;28;20202;-69
2021/12/29 06:42:03;;;;;;;2.85;1.30;;;8.70;99.90;;;;;;4997189;28;20725;-69
2021/12/29 06:44:30;;;;;;;2.40;1.45;;;8.70;99.90;;;;;;4996796;28;20299;-69
2021/12/29 06:46:57;;;;;;;3.28;1.40;;;8.80;99.90;;;;;;4997556;28;20206;-69
2021/12/29 06:49:23;;;;;;;2.10;1.60;;;8.80;99.90;;;;;;4997272;28;20681;-70
2021/12/29 06:51:50;;;;;;;1.65;1.00;;;8.80;99.90;;;;;;4997368;28;20703;-70
2021/12/29 06:54:16;;;;;;;2.40;1.50;;;8.70;99.90;;;;;;4995393;28;20249;-70
2021/12/29 06:56:43;;;;;;;2.83;1.20;;;8.70;99.90;;;;;;4993884;28;20213;-70
2021/12/29 06:59:09;;;;;;;4.05;1.58;;;8.70;99.90;;;;;;4994052;28;20198;-70
2021/12/29 07:01:36;;;;;;;4.80;1.35;;;8.70;99.90;;;;;;4993437;28;20209;-69
2021/12/29 07:04:03;;;;;;;5.30;1.00;;;8.70;99.90;;;;;;4993482;28;20198;-70
2021/12/29 07:06:30;;;;;;;1.58;1.30;;;8.70;99.90;;;;;;4993667;28;20229;-70
2021/12/29 07:08:56;;;;;;;6.63;2.00;;;8.70;99.90;;;;;;4993911;28;20204;-70
2021/12/29 07:11:22;;;;;;;2.55;0.95;;;8.70;99.90;;;;;;4994046;28;20207;-70
2021/12/29 07:13:49;;;;;;;3.65;1.15;;;8.70;99.90;;;;;;4993573;28;20203;-70
2021/12/29 07:16:16;;;;;;;4.43;1.85;;;8.80;99.90;;;;;;4993444;28;20623;-70
2021/12/29 07:18:43;;;;;;;1.60;1.50;;;8.80;99.90;;;;;;4994010;28;20202;-70
2021/12/29 07:21:09;;;;;;;2.67;1.48;;;8.70;99.90;;;;;;4993064;28;20234;-69
2021/12/29 07:23:35;;;;;;;7.30;1.83;;;8.80;99.90;;;;;;4993862;28;20202;-69
2021/12/29 07:26:02;;;;;;;7.38;1.92;;;8.80;99.90;;;;;;4993620;28;20217;-69
2021/12/29 07:28:28;;;;;;;2.72;1.60;;;8.80;99.90;;;;;;4993916;28;20206;-69
2021/12/29 07:30:55;;;;;;;11.77;2.65;;;8.80;99.90;;;;;;4993434;28;20206;-70
2021/12/29 07:33:21;;;;;;;8.80;2.10;;;8.80;99.90;;;;;;4993656;28;20223;-70
2021/12/29 07:35:48;;;;;;;3.95;1.80;;;8.80;99.90;;;;;;4996592;28;20206;-70
2021/12/29 07:38:14;;;;;;;5.75;2.20;;;8.80;99.90;;;;;;4996917;28;20207;-70
2021/12/29 07:40:41;;;;;;;6.07;2.63;;;8.80;99.90;;;;;;4979714;28;20206;-70
2021/12/29 07:43:08;;;;;;;7.18;2.17;;;8.80;99.90;;;;;;4997190;28;20207;-68
2021/12/29 07:45:35;;;;;;;8.93;2.30;;;8.80;99.90;;;;;;4996783;28;20228;-70
2021/12/29 07:48:04;;;;;;;6.40;2.55;;;8.80;99.90;;;;;;4997185;28;20214;-70
2021/12/29 07:50:30;;;;;;;6.03;2.45;;;8.80;99.90;;;;;;4997131;28;20217;-69
2021/12/29 07:52:57;;;;;;;9.10;3.08;;;8.70;99.90;;;;;;4996833;28;20289;-69
2021/12/29 07:55:23;;;;;;;6.22;2.10;;;8.80;99.90;;;;;;4996767;28;20210;-71
2021/12/29 07:57:50;;;;;;;4.65;2.28;;;8.80;99.90;;;;;;4996900;28;20202;-70
2021/12/29 08:00:17;;;;;;;5.55;2.55;;;8.80;99.90;;;;;;4996994;28;20256;-70
2021/12/29 08:02:44;;;;;;;8.88;2.40;;;8.80;99.90;;;;;;4996704;28;20211;-68
2021/12/29 08:05:12;;;;;;;6.95;2.65;;;8.80;99.90;;;;;;4996606;28;20203;-69
2021/12/29 08:07:39;;;;;;;4.50;2.63;;;8.80;99.90;;;;;;4996830;28;20605;-69
2021/12/29 08:10:06;;;;;;;9.75;2.20;;;8.90;99.90;;;;;;4997118;28;20283;-71
2021/12/29 08:12:33;;;;;;;4.85;2.03;;;8.90;99.90;;;;;;4996552;28;20269;-70
2021/12/29 08:14:59;;;;;;;4.40;2.38;;;9.00;99.90;;;;;;4995875;28;20206;-70
2021/12/29 08:17:26;;;;;;;14.38;2.60;;;9.00;99.90;;;;;;4997193;28;20325;-70
2021/12/29 08:19:53;;;;;;;3.28;1.50;;;9.00;99.90;;;;;;4996160;28;20241;-70
2021/12/29 08:22:20;;;;;;;7.32;3.28;;;9.00;99.90;;;;;;4996080;28;20569;-69
2021/12/29 08:24:46;;;;;;;4.03;1.80;;;9.00;99.90;;;;;;4996347;28;20203;-68
2021/12/29 08:27:12;;;;;;;5.22;2.45;;;9.00;99.90;;;;;;4994903;28;20207;-70
2021/12/29 08:29:41;;;;;;;5.45;2.17;;;9.00;99.90;;;;;;4996138;28;20210;-69
2021/12/29 08:32:07;;;;;;;4.22;2.20;;;9.00;99.90;;;;;;4996332;28;20288;-70
2021/12/29 08:34:34;;;;;;;6.50;2.22;;;9.00;99.90;;;;;;4978367;28;20221;-69
2021/12/29 08:37:00;;;;;;;6.15;2.28;;;9.00;99.90;;;;;;4995906;28;20662;-69
2021/12/29 08:39:27;;;;;;;3.13;1.63;;;8.90;99.90;;;;;;4999392;28;20293;-70
2021/12/29 08:41:53;;;;;;;10.85;2.10;;;8.90;99.90;;;;;;4985187;28;20214;-71
2021/12/29 08:44:20;;;;;;;4.90;2.13;;;8.90;99.90;;;;;;4999937;28;20349;-70
2021/12/29 08:46:47;;;;;;;3.35;1.65;;;8.90;99.90;;;;;;4997968;28;20286;-71
2021/12/29 08:49:14;;;;;;;4.47;2.00;;;8.80;99.90;;;;;;4998821;28;20206;-70
2021/12/29 08:51:41;;;;;;;6.88;2.60;;;8.80;99.90;;;;;;4998769;28;20231;-70
2021/12/29 08:54:08;;;;;;;4.68;2.03;;;8.80;99.90;;;;;;5000771;28;20282;-70
2021/12/29 08:56:34;;;;;;;4.93;1.80;;;8.90;99.90;;;;;;5002514;28;20602;-71
2021/12/29 08:59:01;;;;;;;10.13;2.28;;;8.90;99.90;;;;;;4984023;28;20202;-71
2021/12/29 09:01:28;;;;;;;4.85;1.80;;;8.90;99.90;;;;;;5001319;28;20289;-70
2021/12/29 09:03:54;;;;;;;5.55;3.22;;;9.00;99.90;;;;;;4999054;28;20218;-71
2021/12/29 09:06:22;;;;;;;4.95;2.30;;;9.00;99.90;;;;;;4996995;28;20226;-71
2021/12/29 09:08:48;;;;;;;5.32;1.67;;;9.10;99.90;;;;;;4994904;28;20717;-71
2021/12/29 09:11:15;;;;;;;5.95;2.20;;;9.10;99.90;;;;;;4981156;28;20260;-71
2021/12/29 09:13:42;;;;;;;2.45;1.63;;;9.20;99.90;;;;;;5002201;28;20214;-71
2021/12/29 09:16:08;;;;;;;4.55;1.77;;;9.20;99.90;;;;;;5001556;28;20203;-71
2021/12/29 09:18:36;;;;;;;2.38;1.30;;;9.30;99.90;;;;;;5003753;28;20199;-70
2021/12/29 09:21:07;;;;;;;3.40;1.80;;;9.30;99.90;;;;;;5000235;28;20369;-69
2021/12/29 09:23:34;;;;;;;3.00;2.00;;;9.40;99.90;;;;;;5004116;28;20191;-70
2021/12/29 09:26:01;;;;;;;8.38;2.40;;;9.40;99.90;;;;;;5004158;28;20285;-72
2021/12/29 09:28:27;;;;;;;5.70;1.92;;;9.40;99.90;;;;;;5004085;28;20210;-72
2021/12/29 09:30:54;;;;;;;7.97;2.22;;;9.40;99.90;;;;;;5001987;28;20261;-70
2021/12/29 09:33:20;;;;;;;5.00;1.83;;;9.30;99.90;;;;;;5003385;28;20261;-72
2021/12/29 09:35:49;;;;;;;13.13;2.63;;;9.40;99.90;;;;;;5002108;28;20210;-72
2021/12/29 09:38:17;;;;;;;5.47;2.20;;;9.40;99.90;;;;;;4999805;28;20195;-72
2021/12/29 09:40:45;;;;;;;6.50;2.05;;;9.40;99.90;;;;;;5004185;28;20226;-71
2021/12/29 09:43:12;;;;;;;3.05;1.92;;;9.40;99.90;;;;;;5000268;28;20203;-71
2021/12/29 09:45:40;;;;;;;13.90;3.47;;;9.50;99.90;;;;;;5002381;28;20291;-70
2021/12/29 09:48:07;;;;;;;8.98;2.85;;;9.50;99.90;;;;;;4982299;28;20309;-70
2021/12/29 09:50:35;;;;;;;12.52;3.88;;;9.50;99.90;;;;;;4984570;28;20203;-70
2021/12/29 09:53:02;;;;;;;5.80;3.03;;;9.50;99.90;;;;;;5001312;28;20218;-70
2021/12/29 09:55:28;;;;;;;8.27;2.80;;;9.50;99.90;;;;;;5002526;28;20722;-71
2021/12/29 09:57:57;;;;;;;7.90;3.40;;;9.60;99.90;;;;;;4998043;28;20580;-72
2021/12/29 10:00:37;;;;;;;11.80;3.70;;;9.50;99.90;;;;;;4999466;28;20273;-72
2021/12/29 10:03:07;;;;;;;8.32;3.28;;;9.50;99.90;;;;;;4997472;28;20197;-72
2021/12/29 10:05:35;;;;;;;7.75;2.72;;;9.50;99.90;;;;;;4999395;28;20678;-72
2021/12/29 10:08:05;;;;;;;12.20;3.20;;;9.40;99.90;;;;;;4983143;28;20293;-72
2021/12/29 10:10:33;;;;;;;8.95;3.58;;;9.40;99.90;;;;;;4983308;28;20314;-72
2021/12/29 10:13:00;;;;;;;11.50;3.85;;;9.30;99.90;;;;;;4983191;28;20623;-72
2021/12/29 10:15:30;;;;;;;11.65;3.50;;;9.30;99.90;;;;;;4999618;28;20287;-72
2021/12/29 10:18:04;;;;;;;9.98;3.20;;;9.30;99.90;;;;;;5003614;28;20226;-72
2021/12/29 10:20:31;;;;;;;7.95;3.28;;;9.30;99.90;;;;;;5000398;28;20288;-72
2021/12/29 10:22:59;;;;;;;8.75;3.50;;;9.30;99.90;;;;;;5000600;28;20722;-71
2021/12/29 10:25:26;;;;;;;16.60;4.20;;;9.30;99.90;;;;;;5000213;28;20206;-71
2021/12/29 10:27:53;;;;;;;22.30;3.83;;;9.30;99.90;;;;;;4999552;28;20213;-70
2021/12/29 10:30:26;;;;;;;12.40;3.28;;;9.40;99.90;;;;;;5000144;28;20215;-71
2021/12/29 10:32:56;;;;;;;9.80;3.40;;;9.30;99.90;;;;;;4998478;28;20226;-72
2021/12/29 10:35:32;;;;;;;9.38;3.70;;;9.40;99.90;;;;;;4999784;28;20199;-72
2021/12/29 10:38:18;;;;;;;11.93;4.25;;;9.40;99.90;;;;;;5001585;28;20202;-71
2021/12/29 10:40:45;;;;;;;10.02;3.45;;;9.40;99.90;;;;;;5002020;28;20194;-72
2021/12/29 10:43:12;;;;;;;10.07;3.58;;;9.40;99.90;;;;;;5000944;28;20202;-72
2021/12/29 10:45:41;;;;;;;5.70;2.70;;;9.40;99.90;;;;;;5001685;28;20203;-72
2021/12/29 10:48:20;;;;;;;11.98;3.50;;;9.50;99.90;;;;;;5001038;28;20199;-72
2021/12/29 10:51:06;;;;;;;8.07;3.28;;;9.50;99.90;;;;;;5002827;28;20206;-71
2021/12/29 10:53:35;;;;;;;13.05;3.45;;;9.60;99.90;;;;;;5002008;28;20350;-71
2021/12/29 10:56:02;;;;;;;15.85;3.22;;;9.60;99.90;;;;;;5000933;28;20194;-72
2021/12/29 10:58:33;;;;;;;19.33;4.60;;;9.60;99.90;;;;;;5000665;28;20178;-72
2021/12/29 11:00:59;;;;;;;8.90;3.60;;;9.60;99.90;;;;;;5002418;28;20195;-71
2021/12/29 11:03:28;;;;;;;9.43;4.15;;;9.60;99.90;;;;;;5004275;28;20207;-71
2021/12/29 11:06:00;;;;;;;12.82;2.95;;;9.60;99.90;;;;;;5003872;28;20227;-71
2021/12/29 11:08:28;;;;;;;11.27;3.55;;;9.60;99.90;;;;;;4985723;28;20614;-71
2021/12/29 11:11:04;;;;;;;20.38;5.13;;;9.60;99.90;;;;;;4999116;28;20206;-70
2021/12/29 11:13:32;;;;;;;17.23;3.63;;;9.60;99.90;;;;;;4997961;28;20210;-70
2021/12/29 11:16:00;;;;;;;14.13;4.03;;;9.70;99.90;;;;;;4997985;28;20198;-70
2021/12/29 11:18:40;;;;;;;17.85;3.75;;;9.70;99.90;;;;;;4998173;28;20206;-69
2021/12/29 11:21:07;;;;;;;14.45;4.25;;;9.70;99.90;;;;;;4997481;28;20234;-71
2021/12/29 11:23:35;;;;;;;8.40;3.45;;;9.70;99.90;;;;;;4997770;28;20230;-69
2021/12/29 11:26:02;;;;;;;9.88;3.03;;;9.70;99.90;;;;;;4980153;28;20202;-69
2021/12/29 11:28:31;;;;;;;15.70;3.55;;;9.60;99.90;;;;;;4980213;28;20217;-69
2021/12/29 11:31:03;;;;;;;19.20;5.05;;;9.60;99.90;;;;;;4996818;28;20206;-69
2021/12/29 11:33:31;;;;;;;12.07;4.00;;;9.60;99.90;;;;;;4996732;28;20237;-69
2021/12/29 11:35:59;;;;;;;13.10;3.10;;;9.60;99.90;;;;;;4996922;28;20202;-69
2021/12/29 11:38:26;;;;;;;10.48;3.15;;;9.60;99.90;;;;;;4980120;28;20207;-69
2021/12/29 11:41:00;;;;;;;13.70;3.72;;;9.70;99.90;;;;;;4996929;28;20255;-69
2021/12/29 11:43:27;;;;;;;9.63;3.30;;;9.70;99.90;;;;;;4996967;28;20613;-69
2021/12/29 11:45:56;;;;;;;9.02;2.70;;;9.70;99.90;;;;;;4997447;28;20203;-69
2021/12/29 11:48:24;;;;;;;17.40;3.10;;;9.60;99.90;;;;;;4997007;28;20218;-69
2021/12/29 11:50:58;;;;;;;10.98;2.55;;;9.60;99.90;;;;;;4998131;28;20222;-70
2021/12/29 11:53:55;;;;;;;11.40;2.90;;;9.60;99.90;;;;;;4996579;28;20226;-70
2021/12/29 11:56:22;;;;;;;5.63;2.67;;;9.60;99.90;;;;;;4995445;28;20206;-70
2021/12/29 11:58:50;;;;;;;12.77;2.97;;;9.60;99.90;;;;;;4996892;28;20599;-70
2021/12/29 12:01:23;;;;;;;7.70;3.25;;;9.60;99.90;;;;;;4996789;28;20652;-71
2021/12/29 12:03:58;;;;;;;7.85;3.22;;;9.60;99.90;;;;;;4996479;28;20250;-71
2021/12/29 12:06:39;;;;;;;4.38;2.72;;;9.70;99.90;;;;;;4996311;28;20284;-71
2021/12/29 12:09:13;;;;;;;11.75;3.05;;;9.80;99.90;;;;;;4996272;28;20624;-71
2021/12/29 12:11:52;;;;;;;11.18;3.20;;;9.80;99.90;;;;;;4996009;28;20257;-71
2021/12/29 12:14:32;;;;;;;8.88;2.95;;;9.80;99.90;;;;;;4994731;28;20229;-71
2021/12/29 12:17:03;;;;;;;10.63;3.13;;;9.80;99.90;;;;;;4996243;28;20202;-71
2021/12/29 12:19:32;;;;;;;6.43;2.38;;;9.80;99.90;;;;;;4996850;28;20214;-72
2021/12/29 12:22:06;;;;;;;8.32;2.88;;;9.70;99.90;;;;;;4995639;28;20238;-72
2021/12/29 12:24:36;;;;;;;8.68;3.15;;;9.70;99.90;;;;;;4996604;28;20186;-72
2021/12/29 12:27:07;;;;;;;15.60;3.05;;;9.70;99.90;;;;;;4996042;28;20217;-71
2021/12/29 12:29:42;;;;;;;13.18;3.72;;;9.70;99.90;;;;;;4996230;28;20245;-71
2021/12/29 12:32:21;;;;;;;13.25;3.30;;;9.60;99.90;;;;;;4996118;28;20205;-71
2021/12/29 12:35:07;;;;;;;12.27;3.50;;;9.60;99.90;;;;;;4996670;28;20241;-72
2021/12/29 12:37:46;;;;;;;13.00;4.03;;;9.50;99.90;;;;;;4996530;28;20195;-71
2021/12/29 12:40:32;;;;;;;7.22;3.05;;;9.50;99.90;;;;;;4996179;28;20203;-72
2021/12/29 12:43:07;;;;;;;5.75;2.90;;;9.50;99.90;;;;;;4990812;28;20246;-72
2021/12/29 12:45:37;;;;;;;15.20;3.30;;;9.50;99.90;;;;;;4976516;28;20573;-72
2021/12/29 12:48:08;;;;;;;11.90;3.38;;;9.50;99.90;;;;;;4976528;28;20204;-71
2021/12/29 12:50:35;;;;;;;8.18;2.97;;;9.50;99.90;;;;;;4977168;28;20199;-71
2021/12/29 12:53:03;;;;;;;13.65;3.00;;;9.50;99.90;;;;;;4976359;28;20231;-71
2021/12/29 12:55:40;;;;;;;11.38;3.42;;;9.40;99.90;;;;;;4976441;28;20208;-71
2021/12/29 12:58:12;;;;;;;10.05;3.30;;;9.40;99.90;;;;;;4975887;28;20678;-72
2021/12/29 13:00:47;;;;;;;11.55;2.60;;;9.40;99.90;;;;;;4976230;28;20217;-72
2021/12/29 13:03:16;;;;;;;10.57;2.65;;;9.40;99.90;;;;;;4975510;28;20269;-70
2021/12/29 13:05:45;;;;;;;6.45;3.10;;;9.40;99.90;;;;;;4976133;28;20207;-72
2021/12/29 13:08:16;;;;;;;7.00;3.60;;;9.40;99.90;;;;;;4958617;28;20204;-72